Time;durP1;ratioP1;P1;durP2;ratioP2;P2;SDS_P1;SDS_P2;PMS_P1;PMS_P2;Temp;Humidity;BMP_temperature;BMP_pressure;BME280_temperature;BME280_humidity;BME280_pressure;Samples;Min_cycle;Max_cycle;Signal;HPM_P1;HPM_P2
2021/01/18 00:00:09;;;;;;;27.73;12.18;;;;;;;-15.77;70.29;99807.31;1690228;84;21204;-64
2021/01/18 00:02:36;;;;;;;9.13;7.05;;;;;;;-15.88;69.99;99808.36;1686403;84;21399;-66
2021/01/18 00:05:07;;;;;;;22.85;11.08;;;;;;;-15.94;70.20;99803.52;1656922;85;21655;-64
2021/01/18 00:07:50;;;;;;;21.80;11.63;;;;;;;-15.99;70.24;99810.66;1686829;85;21115;-64
2021/01/18 00:10:21;;;;;;;19.90;11.00;;;;;;;-16.03;70.34;99808.70;1672239;85;21604;-63
2021/01/18 00:12:50;;;;;;;21.70;10.43;;;;;;;-16.05;70.51;99815.67;1704393;84;21174;-64
2021/01/18 00:15:20;;;;;;;22.85;13.88;;;;;;;-16.07;70.53;99814.94;1705382;84;21214;-63
2021/01/18 00:17:48;;;;;;;27.48;13.18;;;;;;;-16.05;70.59;99820.82;1705543;84;21046;-64
2021/01/18 00:20:17;;;;;;;27.25;11.70;;;;;;;-15.86;70.81;99819.39;1692561;83;21187;-65
2021/01/18 00:22:45;;;;;;;17.07;10.38;;;;;;;-15.51;71.01;99818.80;1669939;85;21171;-65
2021/01/18 00:25:16;;;;;;;18.77;10.98;;;;;;;-15.15;70.73;99825.77;1706097;84;21584;-63
2021/01/18 00:27:43;;;;;;;18.87;8.43;;;;;;;-14.98;70.39;99832.58;1706067;84;21219;-64
2021/01/18 00:30:14;;;;;;;26.70;11.60;;;;;;;-14.94;70.34;99828.90;1692442;84;21184;-64
2021/01/18 00:32:41;;;;;;;21.35;11.83;;;;;;;-14.91;70.42;99833.07;1691343;84;21626;-63
2021/01/18 00:35:11;;;;;;;23.35;12.13;;;;;;;-14.87;70.36;99820.37;1685762;84;21148;-64
2021/01/18 00:37:47;;;;;;;21.50;12.07;;;;;;;-14.83;70.22;99831.72;1691593;84;21153;-65
2021/01/18 00:40:17;;;;;;;27.05;12.05;;;;;;;-14.85;70.08;99834.83;1666180;84;21227;-62
2021/01/18 00:42:45;;;;;;;26.75;11.97;;;;;;;-14.86;70.17;99828.45;1677585;85;21133;-62
2021/01/18 00:45:17;;;;;;;21.30;9.73;;;;;;;-14.80;70.18;99835.86;1677700;85;20999;-62
2021/01/18 00:47:54;;;;;;;24.18;11.73;;;;;;;-14.67;70.17;99836.36;1677910;85;21133;-65
2021/01/18 00:50:27;;;;;;;19.27;10.85;;;;;;;-14.60;70.00;99830.39;1677609;85;21148;-63
2021/01/18 00:52:56;;;;;;;23.90;11.93;;;;;;;-14.51;69.89;99822.57;1665461;84;21293;-63
2021/01/18 00:55:24;;;;;;;22.77;12.73;;;;;;;-14.47;69.57;99824.05;1692350;84;21078;-63
2021/01/18 00:57:56;;;;;;;20.90;11.68;;;;;;;-14.44;69.26;99818.73;1691698;84;21070;-63
2021/01/18 01:00:26;;;;;;;19.85;11.60;;;;;;;-14.39;69.02;99829.62;1691717;84;21260;-65
2021/01/18 01:02:56;;;;;;;24.00;11.95;;;;;;;-14.33;68.54;99826.16;1693506;84;21167;-63
2021/01/18 01:05:28;;;;;;;22.55;12.45;;;;;;;-14.23;68.40;99823.88;1702349;84;21148;-64
2021/01/18 01:07:58;;;;;;;25.35;9.25;;;;;;;-14.05;68.19;99824.55;1705656;84;21031;-63
2021/01/18 01:10:33;;;;;;;18.10;11.03;;;;;;;-14.06;67.88;99824.17;1704288;83;21676;-63
2021/01/18 01:13:04;;;;;;;18.57;10.55;;;;;;;-14.14;67.89;99823.33;1704626;84;21423;-63
2021/01/18 01:15:32;;;;;;;23.33;14.03;;;;;;;-14.13;68.21;99822.86;1705281;84;21146;-62
2021/01/18 01:18:00;;;;;;;27.73;13.87;;;;;;;-14.09;68.11;99815.30;1677290;85;21607;-63
2021/01/18 01:20:29;;;;;;;14.10;7.33;;;;;;;-14.05;67.69;99818.89;1679986;84;21295;-61
2021/01/18 01:22:57;;;;;;;24.47;12.03;;;;;;;-14.16;66.71;99817.44;1705232;84;21290;-62
2021/01/18 01:25:26;;;;;;;18.02;7.78;;;;;;;-14.34;66.65;99818.08;1705106;84;21226;-63
2021/01/18 01:27:54;;;;;;;16.67;8.20;;;;;;;-14.36;66.87;99809.61;1683060;84;21216;-65
2021/01/18 01:30:23;;;;;;;14.70;8.00;;;;;;;-14.44;67.27;99820.85;1678013;85;21623;-63
2021/01/18 01:32:52;;;;;;;19.90;10.13;;;;;;;-14.57;67.28;99809.55;1677629;85;21306;-62
2021/01/18 01:35:27;;;;;;;23.03;13.90;;;;;;;-14.71;67.22;99810.36;1701357;84;21111;-62
2021/01/18 01:37:55;;;;;;;23.52;11.43;;;;;;;-14.81;67.29;99814.38;1705338;83;21752;-62
2021/01/18 01:40:23;;;;;;;19.67;11.33;;;;;;;-14.87;67.15;99813.92;1705622;84;21126;-62
2021/01/18 01:42:51;;;;;;;23.38;11.70;;;;;;;-14.83;67.27;99817.98;1705733;84;21837;-61
2021/01/18 01:45:19;;;;;;;12.88;7.72;;;;;;;-14.81;67.14;99816.96;1705553;84;21118;-62
2021/01/18 01:47:52;;;;;;;16.80;9.88;;;;;;;-14.88;67.22;99807.92;1705666;84;21124;-62
2021/01/18 01:50:24;;;;;;;22.05;10.05;;;;;;;-15.04;67.54;99803.25;1705619;84;21210;-63
2021/01/18 01:53:03;;;;;;;16.35;9.33;;;;;;;-15.20;67.87;99808.91;1705655;84;21604;-64
2021/01/18 01:55:33;;;;;;;18.00;8.50;;;;;;;-15.32;68.20;99801.84;1705664;83;21482;-63
2021/01/18 01:58:02;;;;;;;22.90;11.12;;;;;;;-15.44;68.32;99803.81;1705196;83;21618;-64
2021/01/18 02:00:37;;;;;;;13.28;7.87;;;;;;;-15.50;68.43;99812.26;1704321;83;21157;-62
2021/01/18 02:03:14;;;;;;;9.88;5.50;;;;;;;-15.50;68.58;99808.84;1704702;84;21120;-62
2021/01/18 02:08:20;;;;;;;15.60;9.47;;;;;;;-15.55;69.19;99801.39;1849332;76;21984;-62
2021/01/18 02:10:47;;;;;;;23.60;11.65;;;;;;;-15.62;69.37;99806.49;1819456;78;20998;-62
2021/01/18 02:13:26;;;;;;;24.98;11.03;;;;;;;-15.64;69.38;99799.77;1819468;78;21339;-62
2021/01/18 02:16:09;;;;;;;20.05;11.03;;;;;;;-15.64;69.35;99803.64;1809776;78;21009;-63
2021/01/18 02:18:46;;;;;;;17.20;8.53;;;;;;;-15.68;69.37;99794.42;1818950;78;21546;-63
2021/01/18 02:21:43;;;;;;;15.50;9.73;;;;;;;-15.72;69.44;99792.89;1799385;78;21186;-62
2021/01/18 02:24:43;;;;;;;19.60;9.63;;;;;;;-15.75;69.68;99799.06;1786002;80;20990;-61
2021/01/18 02:27:57;;;;;;;22.95;10.88;;;;;;;-15.75;69.82;99791.78;1819904;78;21424;-62
2021/01/18 02:31:10;;;;;;;16.32;9.15;;;;;;;-15.76;69.83;99796.09;1819330;78;20950;-64
2021/01/18 02:34:11;;;;;;;;;;;;;;;-15.76;70.08;99806.41;1822461;78;20963;-63
2021/01/18 02:37:12;;;;;;;18.05;8.70;;;;;;;-15.75;70.28;99805.50;1819592;78;20198;-63
2021/01/18 02:40:25;;;;;;;28.35;9.08;;;;;;;-15.80;70.24;99809.23;1819667;78;21562;-63
2021/01/18 02:42:57;;;;;;;12.88;6.58;;;;;;;-15.82;70.15;99818.80;1737237;82;21219;-63
2021/01/18 02:45:25;;;;;;;19.05;11.85;;;;;;;-15.94;70.42;99815.11;1740137;82;21154;-64
2021/01/18 02:47:54;;;;;;;15.93;8.20;;;;;;;-15.98;70.54;99814.91;1750161;80;21140;-71
2021/01/18 02:50:21;;;;;;;13.95;7.60;;;;;;;-16.00;71.03;99814.14;1787338;80;21127;-66
2021/01/18 02:52:49;;;;;;;24.77;9.95;;;;;;;-16.04;70.69;99817.80;1787344;80;21096;-63
2021/01/18 02:55:17;;;;;;;10.63;6.70;;;;;;;-16.12;71.16;99818.66;1787549;78;22086;-63
2021/01/18 02:57:48;;;;;;;10.82;7.40;;;;;;;-16.21;71.27;99817.39;1789471;78;21641;-63
2021/01/18 03:00:25;;;;;;;16.25;8.55;;;;;;;-16.26;71.44;99816.80;1710194;82;21145;-63
2021/01/18 03:03:20;;;;;;;11.35;7.12;;;;;;;-16.36;71.79;99815.59;1730507;81;21195;-63
2021/01/18 03:05:56;;;;;;;10.50;7.30;;;;;;;-16.40;72.24;99821.82;1764039;81;21148;-64
2021/01/18 03:08:35;;;;;;;21.68;11.97;;;;;;;-16.44;72.38;99827.55;1771607;80;22670;-64
2021/01/18 03:11:10;;;;;;;15.23;9.53;;;;;;;-16.44;72.51;99830.58;1792622;79;21051;-64
2021/01/18 03:13:59;;;;;;;18.62;10.55;;;;;;;-16.40;72.71;99822.62;1792556;80;20998;-63
2021/01/18 03:16:29;;;;;;;20.17;9.13;;;;;;;-16.38;72.71;99825.13;1791777;80;20990;-64
2021/01/18 03:19:01;;;;;;;19.62;11.43;;;;;;;-16.36;72.65;99819.91;1765856;80;21169;-64
2021/01/18 03:21:29;;;;;;;11.48;8.30;;;;;;;-16.36;72.73;99818.63;1792379;80;21226;-63
2021/01/18 03:23:56;;;;;;;13.65;8.33;;;;;;;-16.36;72.63;99833.61;1791994;80;21629;-63
2021/01/18 03:26:25;;;;;;;14.87;8.45;;;;;;;-16.34;72.55;99832.23;1782906;80;21228;-62
2021/01/18 03:28:55;;;;;;;16.05;8.40;;;;;;;-16.35;72.63;99824.16;1771512;80;21165;-64
2021/01/18 03:31:23;;;;;;;16.55;8.90;;;;;;;-16.40;72.78;99820.05;1760861;81;21169;-64
2021/01/18 03:33:50;;;;;;;24.02;12.60;;;;;;;-16.43;72.59;99820.22;1760752;81;21206;-63
2021/01/18 03:36:18;;;;;;;21.68;10.10;;;;;;;-16.44;72.49;99826.72;1760684;81;21047;-62
2021/01/18 03:38:45;;;;;;;11.45;7.03;;;;;;;-16.38;72.62;99822.55;1761045;80;21551;-64
2021/01/18 03:41:13;;;;;;;19.70;8.63;;;;;;;-16.34;72.55;99823.22;1760741;81;21057;-64
2021/01/18 03:43:41;;;;;;;20.68;11.28;;;;;;;-16.34;72.44;99822.77;1760863;81;21196;-62
2021/01/18 03:46:09;;;;;;;21.85;11.03;;;;;;;-16.33;72.56;99818.00;1765306;80;21300;-64
2021/01/18 03:48:37;;;;;;;16.55;8.43;;;;;;;-16.31;72.42;99821.80;1766448;80;21195;-63
2021/01/18 03:51:05;;;;;;;17.25;10.55;;;;;;;-16.32;72.28;99816.27;1761664;80;21038;-62
2021/01/18 03:53:32;;;;;;;11.78;7.65;;;;;;;-16.31;72.16;99819.22;1762961;80;21050;-64
2021/01/18 03:56:00;;;;;;;24.10;10.53;;;;;;;-16.29;72.18;99820.80;1792039;79;21197;-65
2021/01/18 03:58:28;;;;;;;15.58;8.58;;;;;;;-16.27;72.12;99818.98;1791798;80;21207;-63
2021/01/18 04:00:55;;;;;;;22.87;9.75;;;;;;;-16.25;72.29;99826.61;1790337;80;21125;-62
2021/01/18 04:03:23;;;;;;;21.93;9.00;;;;;;;-16.25;72.24;99830.47;1792053;80;21136;-62
2021/01/18 04:05:50;;;;;;;10.18;6.05;;;;;;;-16.25;72.10;99826.16;1768108;79;21002;-63
2021/01/18 04:08:19;;;;;;;15.03;9.43;;;;;;;-16.27;71.91;99823.30;1758489;81;21129;-63
2021/01/18 04:10:46;;;;;;;17.65;10.53;;;;;;;-16.26;71.89;99827.09;1765084;80;21967;-63
2021/01/18 04:13:13;;;;;;;17.62;9.60;;;;;;;-16.25;71.75;99819.72;1787800;80;21124;-63
2021/01/18 04:15:41;;;;;;;18.32;10.10;;;;;;;-16.21;71.67;99829.43;1788820;80;21165;-64
2021/01/18 04:18:09;;;;;;;22.17;12.63;;;;;;;-16.20;71.68;99829.33;1787986;80;21121;-62
2021/01/18 04:20:37;;;;;;;24.57;11.75;;;;;;;-16.18;71.63;99827.52;1757918;80;21126;-64
2021/01/18 04:23:04;;;;;;;23.20;11.28;;;;;;;-16.14;71.60;99828.19;1757712;81;21169;-64
2021/01/18 04:25:32;;;;;;;21.20;10.38;;;;;;;-16.09;71.60;99827.05;1771298;80;21050;-72
2021/01/18 04:28:02;;;;;;;25.23;11.55;;;;;;;-15.98;71.50;99827.33;1757934;80;21038;-62
2021/01/18 04:30:35;;;;;;;23.22;11.25;;;;;;;-15.98;71.29;99829.91;1758163;81;21563;-62
2021/01/18 04:33:08;;;;;;;17.87;8.48;;;;;;;-15.97;71.20;99826.88;1759856;80;21632;-63
2021/01/18 04:35:39;;;;;;;14.80;8.10;;;;;;;-15.97;71.04;99825.10;1757487;80;21367;-63
2021/01/18 04:38:06;;;;;;;21.27;9.98;;;;;;;-16.02;70.92;99818.56;1757669;81;20983;-64
2021/01/18 04:40:35;;;;;;;13.98;8.25;;;;;;;-16.07;70.87;99824.40;1758268;80;20983;-64
2021/01/18 04:43:02;;;;;;;12.68;8.28;;;;;;;-16.14;70.82;99830.31;1757653;81;21050;-63
2021/01/18 04:45:30;;;;;;;26.12;10.58;;;;;;;-16.20;70.83;99829.78;1777198;80;21125;-64
2021/01/18 04:47:59;;;;;;;19.35;9.50;;;;;;;-16.24;70.97;99826.54;1780384;80;21653;-63
2021/01/18 04:50:28;;;;;;;13.80;8.03;;;;;;;-16.27;70.94;99823.30;1763425;79;21682;-62
2021/01/18 04:53:03;;;;;;;12.60;7.40;;;;;;;-16.27;70.91;99828.00;1757863;81;21168;-63
2021/01/18 04:55:46;;;;;;;19.20;9.70;;;;;;;-16.29;70.89;99825.11;1770037;80;21111;-64
2021/01/18 04:58:18;;;;;;;21.42;9.65;;;;;;;-16.33;70.95;99834.73;1762693;80;21178;-62
2021/01/18 05:00:52;;;;;;;13.78;7.37;;;;;;;-16.37;70.99;99840.12;1758512;80;21636;-64
2021/01/18 05:03:22;;;;;;;14.30;6.40;;;;;;;-16.40;70.97;99849.64;1782697;80;21046;-64
2021/01/18 05:06:17;;;;;;;21.33;8.13;;;;;;;-16.44;71.06;99842.16;1761619;80;21153;-64
2021/01/18 05:09:32;;;;;;;13.08;7.95;;;;;;;-16.50;71.35;99843.77;1760198;80;21218;-67
2021/01/18 05:11:59;;;;;;;15.93;8.10;;;;;;;-16.52;71.58;99859.28;1706999;84;21633;-64
2021/01/18 05:14:27;;;;;;;13.32;8.70;;;;;;;-16.52;72.06;99857.16;1735855;82;21269;-65
2021/01/18 05:17:17;;;;;;;13.00;6.28;;;;;;;-16.52;72.37;99857.98;1749673;82;21124;-65
2021/01/18 05:19:47;;;;;;;10.78;6.25;;;;;;;-16.50;72.40;99860.05;1725096;83;21106;-65
2021/01/18 05:22:16;;;;;;;12.18;9.28;;;;;;;-16.48;72.58;99872.36;1705091;84;21162;-64
2021/01/18 05:24:44;;;;;;;9.75;5.70;;;;;;;-16.47;72.94;99871.46;1685506;84;21233;-63
2021/01/18 05:27:11;;;;;;;17.70;10.78;;;;;;;-16.46;73.23;99879.56;1675104;85;21263;-64
2021/01/18 05:29:40;;;;;;;15.68;8.55;;;;;;;-16.44;73.12;99879.47;1676139;84;21041;-65
2021/01/18 05:32:22;;;;;;;10.32;7.92;;;;;;;-16.38;73.31;99886.89;1676647;85;21117;-63
2021/01/18 05:35:13;;;;;;;17.07;9.58;;;;;;;-16.35;73.35;99889.30;1676555;85;21165;-65
2021/01/18 05:38:02;;;;;;;18.35;8.50;;;;;;;-16.32;73.48;99893.03;1676637;85;21594;-64
2021/01/18 05:40:35;;;;;;;26.85;12.15;;;;;;;-16.25;73.45;99891.80;1662475;85;21190;-64
2021/01/18 05:43:03;;;;;;;25.55;12.28;;;;;;;-16.22;73.16;99894.23;1676751;84;21212;-64
2021/01/18 05:45:34;;;;;;;18.15;12.05;;;;;;;-16.18;73.19;99895.74;1676575;85;21010;-64
2021/01/18 05:48:03;;;;;;;22.93;12.93;;;;;;;-16.09;73.27;99897.85;1687343;84;21013;-65
2021/01/18 05:50:32;;;;;;;15.28;9.40;;;;;;;-15.97;73.03;99906.23;1705009;84;21634;-65
2021/01/18 05:52:59;;;;;;;18.27;11.53;;;;;;;-15.90;72.74;99895.62;1704942;84;21196;-64
2021/01/18 05:55:29;;;;;;;21.50;10.32;;;;;;;-15.87;72.47;99913.03;1704870;84;21230;-64
2021/01/18 05:58:04;;;;;;;37.67;16.65;;;;;;;-15.86;72.34;99900.53;1705097;84;21204;-65
2021/01/18 06:00:36;;;;;;;20.40;12.35;;;;;;;-15.82;72.23;99903.81;1705597;84;21002;-68
2021/01/18 06:03:09;;;;;;;23.77;11.73;;;;;;;-15.80;72.10;99905.38;1676586;85;21630;-64
2021/01/18 06:05:41;;;;;;;29.10;12.33;;;;;;;-15.74;72.08;99914.53;1698519;84;21264;-65
2021/01/18 06:08:12;;;;;;;;;;;;;;;-15.67;72.08;99919.73;1699167;83;21054;-63
2021/01/18 06:10:40;;;;;;;16.70;9.65;;;;;;;-15.59;71.99;99917.61;1708214;83;20262;-65
2021/01/18 06:13:28;;;;;;;19.73;11.33;;;;;;;-15.49;71.82;99916.19;1707971;83;21133;-64
2021/01/18 06:16:11;;;;;;;25.30;12.13;;;;;;;-15.45;71.68;99924.58;1711871;83;21146;-65
2021/01/18 06:18:40;;;;;;;24.60;11.00;;;;;;;-15.51;71.50;99925.30;1684873;84;21172;-64
2021/01/18 06:21:10;;;;;;;16.57;8.63;;;;;;;-15.50;71.56;99920.95;1660715;85;21183;-66
2021/01/18 06:23:40;;;;;;;24.05;12.45;;;;;;;-15.47;71.55;99916.92;1675172;85;21495;-63
2021/01/18 06:26:08;;;;;;;21.75;11.08;;;;;;;-15.46;71.42;99923.74;1706483;84;21131;-65
2021/01/18 06:28:37;;;;;;;23.85;13.35;;;;;;;-15.42;71.39;99919.25;1706471;84;21609;-65
2021/01/18 06:31:09;;;;;;;30.17;12.88;;;;;;;-15.38;71.31;99917.72;1706466;84;21201;-63
2021/01/18 06:33:49;;;;;;;35.83;16.10;;;;;;;-15.33;71.32;99926.49;1706404;84;21569;-64
2021/01/18 06:36:21;;;;;;;28.70;15.28;;;;;;;-15.27;71.36;99924.89;1685538;84;21159;-64
2021/01/18 06:38:58;;;;;;;31.48;17.77;;;;;;;-15.18;71.33;99925.67;1701679;84;21132;-65
2021/01/18 06:41:34;;;;;;;25.75;13.85;;;;;;;-15.10;71.38;99932.08;1688613;84;21190;-65
2021/01/18 06:44:04;;;;;;;29.07;13.78;;;;;;;-14.97;71.39;99930.98;1677824;85;21275;-64
2021/01/18 06:46:35;;;;;;;22.00;13.03;;;;;;;-14.86;71.26;99930.37;1678195;85;21552;-64
2021/01/18 06:49:04;;;;;;;27.30;13.90;;;;;;;-14.81;71.07;99930.49;1678614;84;21175;-62
2021/01/18 06:51:31;;;;;;;30.20;15.80;;;;;;;-14.83;70.94;99922.02;1678041;85;21599;-63
2021/01/18 06:53:59;;;;;;;32.45;16.50;;;;;;;-14.74;71.06;99934.41;1683670;84;22108;-64
2021/01/18 06:56:41;;;;;;;33.05;15.15;;;;;;;-14.65;70.93;99939.52;1685635;84;22661;-63
2021/01/18 06:59:27;;;;;;;18.45;10.45;;;;;;;-14.58;70.92;99938.73;1687534;84;21045;-61
2021/01/18 07:02:26;;;;;;;18.90;11.57;;;;;;;-14.51;70.67;99940.03;1706625;84;21163;-70
2021/01/18 07:05:10;;;;;;;18.85;12.28;;;;;;;-14.46;70.71;99943.19;1706727;84;21565;-65
2021/01/18 07:07:38;;;;;;;19.20;9.98;;;;;;;-14.35;70.65;99945.52;1700312;84;21120;-64
2021/01/18 07:10:10;;;;;;;25.70;15.28;;;;;;;-14.27;70.50;99945.07;1706608;84;21217;-64
2021/01/18 07:12:37;;;;;;;17.73;9.45;;;;;;;-14.23;70.45;99937.05;1706652;84;21604;-63
2021/01/18 07:15:07;;;;;;;13.38;8.08;;;;;;;-14.19;70.29;99948.88;1704309;84;21140;-63
2021/01/18 07:17:55;;;;;;;20.82;10.45;;;;;;;-14.19;70.18;99945.00;1706720;84;21132;-62
2021/01/18 07:20:27;;;;;;;19.48;10.78;;;;;;;-14.25;70.17;99949.70;1706674;84;21394;-61
2021/01/18 07:23:14;;;;;;;15.25;10.43;;;;;;;-14.16;70.44;99956.92;1702888;84;21370;-62
2021/01/18 07:25:47;;;;;;;29.95;13.78;;;;;;;-14.04;70.38;99956.66;1706659;84;21132;-63
2021/01/18 07:28:19;;;;;;;25.52;14.10;;;;;;;-13.88;70.38;99951.81;1706806;84;21187;-62
2021/01/18 07:33:26;;;;;;;28.90;14.03;;;;;;;-13.60;69.95;99958.77;1881981;76;22869;-63
2021/01/18 07:35:53;;;;;;;29.27;15.73;;;;;;;-13.66;69.63;99955.25;1814964;78;20975;-62
2021/01/18 07:38:28;;;;;;;29.60;16.40;;;;;;;-13.60;69.86;99958.77;1814094;79;21211;-63
2021/01/18 07:41:13;;;;;;;31.50;14.60;;;;;;;-13.47;69.81;99959.69;1813589;77;21805;-62
2021/01/18 07:43:46;;;;;;;23.30;13.30;;;;;;;-13.35;69.62;99962.85;1814345;77;21177;-63
2021/01/18 07:46:32;;;;;;;21.00;10.97;;;;;;;-13.23;69.35;99961.26;1889251;75;22624;-64
2021/01/18 07:49:16;;;;;;;21.23;11.70;;;;;;;-13.23;69.25;99952.69;1860281;77;21022;-61
2021/01/18 07:51:44;;;;;;;19.43;11.43;;;;;;;-13.27;68.83;99956.73;1813741;78;21413;-62
2021/01/18 07:54:33;;;;;;;9.97;6.30;;;;;;;-13.29;69.08;99952.14;1819523;78;21205;-63
2021/01/18 07:57:34;;;;;;;22.67;12.37;;;;;;;-13.35;68.60;99955.55;1781419;80;21302;-63
2021/01/18 08:00:24;;;;;;;17.27;10.97;;;;;;;-13.39;69.09;99952.78;1781357;80;21717;-62
2021/01/18 08:03:09;;;;;;;23.00;12.30;;;;;;;-13.28;69.11;99964.59;1762874;81;21648;-62
2021/01/18 08:05:39;;;;;;;23.47;12.67;;;;;;;-13.33;68.91;99964.86;1760364;81;21800;-65
2021/01/18 08:08:09;;;;;;;19.23;11.80;;;;;;;-13.29;69.37;99968.95;1762777;81;21247;-63
2021/01/18 08:11:15;;;;;;;24.83;12.57;;;;;;;-13.20;69.35;99970.14;1763251;80;21307;-64
2021/01/18 08:13:55;;;;;;;31.87;14.73;;;;;;;-13.19;69.25;99965.80;1778731;80;22430;-64
2021/01/18 08:16:39;;;;;;;22.93;13.83;;;;;;;-13.16;69.35;99974.66;1784647;80;21371;-64
2021/01/18 08:19:20;;;;;;;27.10;13.67;;;;;;;-13.14;69.21;99976.70;1787459;80;22287;-63
2021/01/18 08:21:58;;;;;;;23.35;13.38;;;;;;;-13.10;69.45;99971.67;1742086;81;24567;-63
2021/01/18 08:24:35;;;;;;;24.57;13.30;;;;;;;-12.98;69.50;99972.20;1757481;81;21136;-63
2021/01/18 08:27:04;;;;;;;27.60;14.33;;;;;;;-12.86;69.67;99971.00;1757335;81;21389;-64
2021/01/18 08:29:52;;;;;;;15.17;9.73;;;;;;;-12.71;69.66;99969.22;1746411;81;21785;-65
2021/01/18 08:32:36;;;;;;;20.73;12.60;;;;;;;-12.61;69.27;99966.38;1705440;84;21457;-63
2021/01/18 08:35:07;;;;;;;22.77;15.50;;;;;;;-12.50;69.27;99968.30;1709687;83;21167;-63
2021/01/18 08:37:36;;;;;;;29.50;14.40;;;;;;;-12.34;69.02;99975.94;1680594;84;21421;-63
2021/01/18 08:40:13;;;;;;;20.13;13.77;;;;;;;-12.26;68.70;99974.50;1687700;83;21284;-64
2021/01/18 08:42:41;;;;;;;25.80;14.40;;;;;;;-12.21;68.47;99976.80;1683315;83;21458;-67
2021/01/18 08:45:29;;;;;;;26.93;14.50;;;;;;;-12.15;68.20;99979.00;1712444;83;21503;-63
2021/01/18 08:48:02;;;;;;;22.10;14.03;;;;;;;-12.12;67.98;99972.31;1713759;83;21280;-63
2021/01/18 08:50:55;;;;;;;28.77;14.20;;;;;;;-12.11;67.44;99973.52;1713873;83;21431;-63
2021/01/18 08:53:32;;;;;;;24.90;12.70;;;;;;;-12.16;67.36;99970.85;1714042;83;21190;-61
2021/01/18 08:56:05;;;;;;;23.93;14.90;;;;;;;-12.20;67.15;99977.17;1713661;83;21160;-63
2021/01/18 08:58:36;;;;;;;23.80;16.03;;;;;;;-12.22;67.25;99978.55;1713333;83;21480;-66
2021/01/18 09:01:13;;;;;;;32.33;15.13;;;;;;;-12.14;67.36;99973.73;1727759;82;21446;-65
2021/01/18 09:03:42;;;;;;;33.17;18.50;;;;;;;-12.02;67.29;99966.43;1701097;83;21287;-62
2021/01/18 09:06:10;;;;;;;27.53;16.37;;;;;;;-11.90;67.33;99962.68;1692080;84;21434;-64
2021/01/18 09:08:40;;;;;;;22.57;12.97;;;;;;;-11.80;67.14;99959.38;1713150;83;21422;-63
2021/01/18 09:11:09;;;;;;;26.33;15.33;;;;;;;-11.72;66.81;99959.66;1725618;83;21449;-63
2021/01/18 09:13:39;;;;;;;30.73;14.53;;;;;;;-11.67;66.63;99954.16;1725621;83;22015;-64
2021/01/18 09:16:08;;;;;;;28.80;15.77;;;;;;;-11.63;66.54;99947.83;1726022;82;21448;-65
2021/01/18 09:18:36;;;;;;;32.07;17.90;;;;;;;-11.65;66.04;99941.93;1705458;84;21464;-63
2021/01/18 09:21:07;;;;;;;29.50;15.57;;;;;;;-11.67;66.12;99945.08;1704438;84;21943;-65
2021/01/18 09:23:35;;;;;;;24.43;15.37;;;;;;;-11.67;66.29;99944.62;1705526;84;22165;-62
2021/01/18 09:26:11;;;;;;;28.00;15.07;;;;;;;-11.56;66.19;99942.60;1700501;84;21427;-64
2021/01/18 09:28:53;;;;;;;25.03;13.93;;;;;;;-11.59;65.57;99941.03;1700930;83;21434;-67
2021/01/18 09:31:21;;;;;;;22.73;11.47;;;;;;;-11.59;65.57;99941.03;1725646;83;21483;-63
2021/01/18 09:36:27;;;;;;;31.07;17.27;;;;;;;-11.51;65.68;99933.55;1825670;76;22747;-64
2021/01/18 09:38:55;;;;;;;26.73;12.13;;;;;;;-11.43;65.96;99934.80;1810277;79;20982;-64
2021/01/18 09:41:23;;;;;;;29.63;13.53;;;;;;;-11.35;65.69;99927.31;1817085;79;21450;-64
2021/01/18 09:43:50;;;;;;;25.37;15.37;;;;;;;-11.57;65.27;99922.77;1707527;80;21450;-64
2021/01/18 09:46:17;;;;;;;30.80;16.43;;;;;;;-11.57;65.27;99922.77;1799158;79;21388;-66
2021/01/18 09:48:51;;;;;;;19.93;13.67;;;;;;;-11.36;66.09;99926.94;1817059;79;21682;-63
2021/01/18 09:51:20;;;;;;;26.17;14.60;;;;;;;-11.23;65.55;99921.30;1817544;78;21485;-63
2021/01/18 09:53:56;;;;;;;20.50;13.37;;;;;;;-11.10;65.47;99919.48;1783760;79;22027;-63
2021/01/18 09:56:24;;;;;;;20.93;13.60;;;;;;;-10.93;65.35;99919.13;1787398;79;21582;-63
2021/01/18 09:58:54;;;;;;;16.20;11.53;;;;;;;-10.93;65.35;99919.13;1784874;79;21487;-63
2021/01/18 10:01:26;;;;;;;16.60;8.03;;;;;;;-10.82;63.60;99924.39;1791367;79;21535;-65
2021/01/18 10:03:58;;;;;;;23.00;15.30;;;;;;;-10.85;63.96;99923.33;1812508;79;21590;-64
2021/01/18 10:06:30;;;;;;;19.67;11.50;;;;;;;-10.77;63.94;99917.11;1784903;80;21830;-66
2021/01/18 10:09:09;;;;;;;20.82;12.73;;;;;;;-10.77;63.94;99917.11;1815558;79;21803;-65
2021/01/18 10:11:43;;;;;;;25.33;13.67;;;;;;;-10.65;63.97;99916.71;1748763;82;21015;-65
2021/01/18 10:14:24;;;;;;;28.50;12.07;;;;;;;-10.51;63.79;99912.65;1759008;81;21888;-63
2021/01/18 10:17:09;;;;;;;15.35;9.83;;;;;;;-10.51;63.25;99915.24;1807825;79;21817;-64
2021/01/18 10:19:38;;;;;;;16.27;9.47;;;;;;;-10.73;63.16;99911.21;1797114;78;21583;-65
2021/01/18 10:22:15;;;;;;;19.13;11.77;;;;;;;-11.02;63.55;99918.94;1784872;80;21843;-65
2021/01/18 10:24:56;;;;;;;24.17;12.30;;;;;;;-11.16;63.92;99916.02;1771738;79;22257;-66
2021/01/18 10:27:27;;;;;;;21.13;10.87;;;;;;;-11.16;63.92;99916.02;1762750;80;21766;-63
2021/01/18 10:30:11;;;;;;;16.30;10.23;;;;;;;-11.07;64.40;99920.56;1785177;80;21785;-66
2021/01/18 10:32:47;;;;;;;19.57;9.57;;;;;;;-10.98;64.34;99922.51;1753807;80;21850;-66
2021/01/18 10:35:23;;;;;;;19.50;11.73;;;;;;;-10.95;64.58;99914.98;1773880;79;21905;-64
2021/01/18 10:37:50;;;;;;;23.03;12.00;;;;;;;-11.01;64.67;99915.41;1781101;80;21520;-64
2021/01/18 10:40:21;;;;;;;13.27;10.03;;;;;;;-11.05;64.45;99920.83;1771498;80;21889;-70
2021/01/18 10:42:53;;;;;;;22.83;11.90;;;;;;;-11.41;64.68;99899.22;1753792;81;21830;-69
2021/01/18 10:45:26;;;;;;;16.73;10.87;;;;;;;-11.43;65.30;99906.27;1754020;81;22276;-75
2021/01/18 10:48:00;;;;;;;19.53;11.10;;;;;;;-11.43;65.30;99906.27;1762248;80;21850;-70
2021/01/18 10:50:30;;;;;;;21.20;12.90;;;;;;;-11.09;65.96;99908.17;1781913;80;22744;-70
2021/01/18 10:53:09;;;;;;;22.58;12.40;;;;;;;-11.09;65.96;99908.17;1763132;80;22292;-67
2021/01/18 10:55:37;;;;;;;21.17;11.87;;;;;;;-11.21;65.98;99911.61;1769736;80;21086;-65
2021/01/18 10:58:06;;;;;;;18.53;9.87;;;;;;;-11.21;65.98;99911.61;1776894;80;22345;-64
2021/01/18 11:00:37;;;;;;;20.73;12.60;;;;;;;-11.09;66.19;99917.27;1767486;80;21858;-65
2021/01/18 11:03:04;;;;;;;17.63;11.23;;;;;;;-10.96;65.98;99914.16;1753250;81;21859;-66
2021/01/18 11:05:38;;;;;;;17.33;9.00;;;;;;;-10.84;65.87;99917.20;1761243;80;21840;-63
2021/01/18 11:08:09;;;;;;;19.97;11.03;;;;;;;-10.75;65.36;99922.20;1784331;80;21859;-67
2021/01/18 11:10:40;;;;;;;16.37;10.75;;;;;;;-10.70;65.27;99922.23;1774194;80;21810;-67
2021/01/18 11:13:12;;;;;;;16.60;11.77;;;;;;;-10.66;65.08;99917.18;1749974;81;21148;-64
2021/01/18 11:15:43;;;;;;;17.20;10.33;;;;;;;-10.65;64.55;99917.55;1753397;81;21684;-66
2021/01/18 11:18:12;;;;;;;16.00;6.83;;;;;;;-10.60;64.65;99914.12;1753285;81;21897;-67
2021/01/18 11:20:41;;;;;;;17.40;10.23;;;;;;;-10.58;64.32;99913.19;1768437;80;22249;-67
2021/01/18 11:23:11;;;;;;;19.73;11.07;;;;;;;-10.64;64.40;99915.28;1783740;80;21840;-71
2021/01/18 11:25:39;;;;;;;16.53;10.77;;;;;;;-10.73;64.26;99919.01;1762595;80;21819;-65
2021/01/18 11:30:53;;;;;;;20.48;13.25;;;;;;;-10.72;64.54;99926.70;1867814;76;27772;-67
2021/01/18 11:33:21;;;;;;;15.97;9.73;;;;;;;-10.79;64.23;99920.77;1842103;77;21555;-70
2021/01/18 11:35:49;;;;;;;20.47;11.30;;;;;;;-10.84;64.42;99918.97;1850746;77;22318;-65
2021/01/18 11:38:17;;;;;;;14.80;10.77;;;;;;;-10.86;64.55;99910.44;1782929;80;22350;-66
2021/01/18 11:40:46;;;;;;;24.73;13.50;;;;;;;-10.81;64.72;99922.17;1777679;80;21720;-69
2021/01/18 11:43:14;;;;;;;17.47;10.90;;;;;;;-10.69;64.71;99915.25;1783828;80;21721;-68
2021/01/18 11:45:42;;;;;;;17.63;10.40;;;;;;;-10.66;64.53;99910.69;1783873;80;21828;-66
2021/01/18 11:48:10;;;;;;;17.77;11.40;;;;;;;-10.60;64.51;99920.61;1784709;80;21693;-67
2021/01/18 11:50:38;;;;;;;17.77;10.10;;;;;;;-10.57;64.33;99907.05;1792395;79;21014;-66